createdAt,value
2024-03-26T00:02:18.408Z,62.51
2024-03-26T00:04:45.859Z,62.52
2024-03-26T00:07:14.220Z,62.57
2024-03-26T00:09:42.505Z,62.79
2024-03-26T00:12:10.088Z,63.08
2024-03-26T00:14:38.219Z,62.84
2024-03-26T00:17:07.477Z,62.57
2024-03-26T00:19:35.416Z,62.55
2024-03-26T00:22:04.130Z,62.55
2024-03-26T00:24:32.915Z,62.65
2024-03-26T00:27:01.304Z,62.75
2024-03-26T00:29:30.531Z,62.79
2024-03-26T00:32:00.913Z,62.59
2024-03-26T00:34:31.323Z,62.53
2024-03-26T00:36:59.932Z,62.47
2024-03-26T00:39:30.190Z,62.44
2024-03-26T00:41:57.653Z,62.40
2024-03-26T00:44:25.090Z,62.10
2024-03-26T00:46:52.112Z,62.29
2024-03-26T00:49:21.418Z,61.96
2024-03-26T00:51:50.394Z,61.76
2024-03-26T00:54:17.833Z,61.84
2024-03-26T00:56:46.775Z,61.99
2024-03-26T00:59:15.252Z,62.16
2024-03-26T01:01:43.904Z,62.07
2024-03-26T01:04:11.627Z,61.80
2024-03-26T01:06:41.397Z,61.84
2024-03-26T01:09:09.384Z,61.77
2024-03-26T01:11:37.359Z,61.52
2024-03-26T01:14:05.076Z,61.34
2024-03-26T01:16:32.551Z,61.24
2024-03-26T01:19:00.599Z,61.33
2024-03-26T01:21:28.735Z,61.24
2024-03-26T01:23:56.882Z,61.21
2024-03-26T01:26:24.875Z,61.25
2024-03-26T01:28:54.807Z,60.80
2024-03-26T01:31:24.655Z,60.89
2024-03-26T01:33:53.511Z,60.64
2024-03-26T01:36:21.626Z,60.55
2024-03-26T01:38:48.988Z,60.68
2024-03-26T01:41:17.579Z,60.86
2024-03-26T01:43:47.798Z,60.88
2024-03-26T01:46:16.337Z,61.08
2024-03-26T01:48:45.066Z,61.23
2024-03-26T01:51:12.427Z,61.45
2024-03-26T01:53:41.302Z,61.53
2024-03-26T01:56:09.987Z,61.95
2024-03-26T01:58:38.556Z,62.46
2024-03-26T02:01:07.684Z,62.65
2024-03-26T02:03:35.822Z,62.82
2024-03-26T02:06:06.308Z,62.88
2024-03-26T02:08:34.097Z,62.99
2024-03-26T02:11:02.031Z,63.52
2024-03-26T02:13:32.469Z,63.50
2024-03-26T02:16:01.568Z,63.13
2024-03-26T02:18:29.191Z,63.72
2024-03-26T02:20:57.999Z,63.13
2024-03-26T02:23:30.009Z,63.33
2024-03-26T02:25:59.061Z,63.42
2024-03-26T02:28:27.169Z,63.25
2024-03-26T02:30:54.650Z,63.43
2024-03-26T02:33:22.176Z,63.44
2024-03-26T02:35:49.709Z,63.83
2024-03-26T02:38:19.887Z,63.45
2024-03-26T02:40:48.885Z,63.33
2024-03-26T02:43:17.165Z,63.22
2024-03-26T02:45:45.258Z,62.55
2024-03-26T02:48:15.455Z,62.53
2024-03-26T02:50:43.434Z,62.48
2024-03-26T02:53:12.729Z,62.47
2024-03-26T02:55:41.531Z,62.49
2024-03-26T02:58:10.786Z,62.20
2024-03-26T03:00:38.526Z,62.26
2024-03-26T03:03:06.368Z,62.30
2024-03-26T03:05:35.090Z,62.49
2024-03-26T03:08:03.845Z,62.81
2024-03-26T03:10:31.752Z,63.06
2024-03-26T03:12:59.811Z,63.68
2024-03-26T03:15:27.742Z,64.16
2024-03-26T03:17:57.503Z,64.01
2024-03-26T03:20:25.225Z,64.30
2024-03-26T03:22:55.066Z,64.47
2024-03-26T03:25:23.024Z,64.64
2024-03-26T03:27:53.544Z,64.39
2024-03-26T03:30:21.769Z,64.58
2024-03-26T03:32:49.671Z,64.64
2024-03-26T03:35:19.828Z,64.71
2024-03-26T03:37:48.831Z,64.44
2024-03-26T03:40:18.425Z,64.97
2024-03-26T03:42:48.093Z,65.12
2024-03-26T03:45:17.492Z,65.79
2024-03-26T03:47:45.976Z,65.00
2024-03-26T03:50:14.383Z,65.67
2024-03-26T03:52:43.771Z,66.80
2024-03-26T03:55:11.242Z,66.62
2024-03-26T03:57:40.038Z,67.26
2024-03-26T04:00:08.988Z,67.34
2024-03-26T04:02:44.236Z,67.63
2024-03-26T04:05:12.497Z,67.00
2024-03-26T04:07:40.576Z,67.12
2024-03-26T04:10:08.837Z,66.38
2024-03-26T04:12:37.887Z,65.94
2024-03-26T04:15:07.467Z,66.06
2024-03-26T04:17:37.175Z,65.47
2024-03-26T04:20:10.166Z,66.20
2024-03-26T04:22:39.922Z,65.55
2024-03-26T04:25:07.767Z,65.75
2024-03-26T04:27:35.994Z,66.59
2024-03-26T04:30:05.449Z,67.33
2024-03-26T04:32:38.054Z,67.73
2024-03-26T04:35:07.207Z,67.91
2024-03-26T04:37:35.381Z,66.88
2024-03-26T04:40:07.087Z,66.27
2024-03-26T04:42:34.844Z,66.88
2024-03-26T04:45:05.014Z,66.80
2024-03-26T04:47:33.353Z,67.08
2024-03-26T04:50:00.884Z,67.47
2024-03-26T04:52:29.219Z,65.91
2024-03-26T04:54:57.222Z,65.71
2024-03-26T04:57:25.235Z,66.55
2024-03-26T04:59:53.366Z,67.29
2024-03-26T05:02:22.271Z,68.20
2024-03-26T05:04:51.792Z,68.56
2024-03-26T05:07:20.124Z,69.58
2024-03-26T05:09:48.411Z,68.59
2024-03-26T05:12:17.006Z,68.31
2024-03-26T05:14:45.542Z,68.05
2024-03-26T05:17:13.948Z,68.49
2024-03-26T05:19:43.089Z,68.41
2024-03-26T05:22:11.266Z,68.84
2024-03-26T05:24:41.048Z,68.92
2024-03-26T05:27:12.214Z,68.81
2024-03-26T05:29:40.385Z,68.70
2024-03-26T05:32:10.667Z,68.33
2024-03-26T05:34:39.754Z,68.19
2024-03-26T05:37:07.776Z,68.00
2024-03-26T05:39:37.151Z,67.16
2024-03-26T05:42:10.840Z,66.55
2024-03-26T05:44:39.963Z,65.67
2024-03-26T05:47:08.850Z,65.51
2024-03-26T05:49:38.423Z,64.88
2024-03-26T05:52:07.105Z,64.66
2024-03-26T05:54:38.948Z,64.15
2024-03-26T05:57:09.760Z,63.51
2024-03-26T05:59:39.064Z,63.35
2024-03-26T06:02:07.951Z,63.79
2024-03-26T06:04:36.635Z,63.63
2024-03-26T06:07:04.053Z,63.16
2024-03-26T06:09:34.901Z,62.87
2024-03-26T06:12:03.441Z,62.28
2024-03-26T06:14:30.691Z,62.15
2024-03-26T06:16:59.064Z,61.41
2024-03-26T06:19:26.574Z,60.80
2024-03-26T06:21:55.556Z,60.26
2024-03-26T06:24:23.415Z,60.27
2024-03-26T06:26:56.228Z,59.18
2024-03-26T06:29:25.094Z,57.63
2024-03-26T06:31:52.665Z,57.35
2024-03-26T06:34:20.308Z,56.84
2024-03-26T06:36:49.727Z,54.44
2024-03-26T06:39:20.731Z,52.73
2024-03-26T06:41:48.076Z,53.70
2024-03-26T06:44:15.243Z,53.40
2024-03-26T06:46:42.355Z,51.71
2024-03-26T06:49:09.675Z,50.20
2024-03-26T06:51:37.595Z,50.77
2024-03-26T06:54:04.739Z,48.15
2024-03-26T06:56:32.733Z,49.26
2024-03-26T06:59:01.728Z,50.27
2024-03-26T07:01:29.685Z,48.95
2024-03-26T07:03:56.773Z,47.12
2024-03-26T07:06:24.751Z,46.58
2024-03-26T07:09:00.195Z,46.01
2024-03-26T07:11:33.870Z,46.68
2024-03-26T07:14:01.492Z,46.59
2024-03-26T07:16:28.672Z,46.20
2024-03-26T07:18:59.444Z,45.08
2024-03-26T07:21:28.105Z,46.30
2024-03-26T07:23:56.221Z,46.68
2024-03-26T07:26:25.281Z,45.45
2024-03-26T07:28:53.808Z,45.20
2024-03-26T07:31:25.799Z,44.19
2024-03-26T07:33:53.609Z,42.44
2024-03-26T07:36:21.873Z,43.04
2024-03-26T07:38:51.407Z,40.13
2024-03-26T07:41:19.852Z,40.61
2024-03-26T07:43:49.736Z,40.81
2024-03-26T07:46:17.031Z,41.15
2024-03-26T07:48:48.313Z,41.23
2024-03-26T07:51:17.593Z,41.93
2024-03-26T07:53:49.734Z,41.93
2024-03-26T07:56:17.198Z,42.45
2024-03-26T07:58:44.450Z,42.31
2024-03-26T08:01:13.281Z,42.20
2024-03-26T08:03:42.452Z,42.26
2024-03-26T08:06:10.763Z,40.59
2024-03-26T08:08:39.655Z,39.44
2024-03-26T08:11:12.556Z,40.11
2024-03-26T08:13:44.094Z,39.83
2024-03-26T08:16:13.748Z,39.42
2024-03-26T08:18:42.290Z,38.95
2024-03-26T08:21:11.538Z,38.89
2024-03-26T08:23:44.727Z,39.37
2024-03-26T08:26:14.337Z,39.03
2024-03-26T08:28:54.894Z,40.08
2024-03-26T08:31:30.887Z,39.78
2024-03-26T08:33:59.461Z,38.65
2024-03-26T08:36:27.309Z,38.35
2024-03-26T08:38:58.313Z,37.86
2024-03-26T08:41:32.297Z,38.12
2024-03-26T08:44:06.542Z,38.33
2024-03-26T08:46:35.763Z,38.45
2024-03-26T08:49:04.735Z,38.18
2024-03-26T08:51:32.227Z,37.36
2024-03-26T08:54:03.461Z,37.26
2024-03-26T08:56:31.927Z,36.51
2024-03-26T08:59:01.271Z,36.32
2024-03-26T09:01:36.016Z,35.67
2024-03-26T09:04:04.656Z,35.83
2024-03-26T09:06:35.467Z,36.15
2024-03-26T09:09:03.603Z,34.56
2024-03-26T09:11:41.096Z,33.82
2024-03-26T09:14:09.052Z,33.66
2024-03-26T09:16:38.238Z,32.08
2024-03-26T09:19:14.632Z,31.52
2024-03-26T09:21:45.133Z,33.49
2024-03-26T09:24:14.485Z,33.13
2024-03-26T09:26:45.375Z,31.01
2024-03-26T09:29:19.135Z,30.34
2024-03-26T09:31:46.954Z,30.39
2024-03-26T09:34:20.794Z,30.60
2024-03-26T09:36:51.771Z,30.45
2024-03-26T09:39:21.159Z,31.15
2024-03-26T09:41:50.127Z,30.74
2024-03-26T09:44:19.166Z,30.14
2024-03-26T09:46:49.871Z,30.65
2024-03-26T09:49:21.202Z,31.97
2024-03-26T09:51:54.418Z,33.97
2024-03-26T09:54:26.457Z,33.97
2024-03-26T09:56:55.744Z,33.03
2024-03-26T09:59:24.476Z,32.74
2024-03-26T10:01:58.260Z,31.96
2024-03-26T10:04:26.937Z,31.49
2024-03-26T10:07:07.647Z,32.52
2024-03-26T10:09:35.634Z,31.07
2024-03-26T10:12:05.718Z,28.70
2024-03-26T10:14:33.555Z,29.09
2024-03-26T10:17:00.811Z,28.70
2024-03-26T10:19:29.978Z,28.92
2024-03-26T10:21:57.315Z,28.79
2024-03-26T10:24:25.040Z,29.88
2024-03-26T10:26:54.038Z,29.44
2024-03-26T10:29:26.383Z,27.49
2024-03-26T10:31:55.793Z,28.28
2024-03-26T10:34:26.145Z,28.88
2024-03-26T10:36:58.437Z,28.34
2024-03-26T10:39:32.398Z,27.75
2024-03-26T10:42:01.461Z,28.67
2024-03-26T10:44:30.117Z,27.87
2024-03-26T10:47:02.633Z,28.35
2024-03-26T10:49:31.173Z,28.36
2024-03-26T10:52:02.759Z,28.10
2024-03-26T10:54:31.980Z,27.20
2024-03-26T10:57:00.453Z,27.22
2024-03-26T10:59:29.170Z,27.47
2024-03-26T11:02:02.300Z,27.52
2024-03-26T11:04:31.088Z,27.68
2024-03-26T11:06:59.850Z,27.59
2024-03-26T11:09:26.900Z,28.19
2024-03-26T11:12:00.918Z,27.03
2024-03-26T11:14:29.830Z,26.86
2024-03-26T11:17:00.832Z,26.84
2024-03-26T11:19:32.629Z,26.88
2024-03-26T11:22:03.897Z,27.27
2024-03-26T11:24:35.530Z,27.03
2024-03-26T11:27:09.116Z,27.74
2024-03-26T11:29:45.631Z,26.98
2024-03-26T11:32:17.246Z,26.86
2024-03-26T11:34:47.007Z,26.48
2024-03-26T11:37:16.671Z,26.34
2024-03-26T11:39:45.914Z,26.24
2024-03-26T11:42:14.459Z,27.07
2024-03-26T11:44:43.598Z,27.49
2024-03-26T11:47:11.227Z,28.09
2024-03-26T11:49:39.446Z,27.69
2024-03-26T11:52:08.037Z,27.15
2024-03-26T11:54:37.651Z,27.44
2024-03-26T11:57:05.521Z,27.76
2024-03-26T11:59:33.811Z,27.75
2024-03-26T12:02:03.317Z,27.76
2024-03-26T12:04:30.563Z,28.45
2024-03-26T12:06:58.773Z,29.12
2024-03-26T12:09:27.867Z,28.62
2024-03-26T12:11:57.614Z,28.52
2024-03-26T12:14:26.312Z,27.68
2024-03-26T12:16:56.565Z,27.26
2024-03-26T12:19:24.445Z,27.35
2024-03-26T12:21:52.186Z,27.65
2024-03-26T12:24:19.909Z,27.94
2024-03-26T12:26:47.540Z,27.64
2024-03-26T12:29:15.007Z,27.86
2024-03-26T12:31:42.286Z,27.34
2024-03-26T12:34:11.743Z,27.80
2024-03-26T12:36:41.455Z,27.64
2024-03-26T12:39:10.869Z,27.62
2024-03-26T12:41:40.100Z,27.63
2024-03-26T12:44:13.386Z,27.46
2024-03-26T12:46:42.131Z,27.25
2024-03-26T12:49:10.605Z,27.23
2024-03-26T12:51:38.443Z,26.82
2024-03-26T12:54:08.896Z,26.38
2024-03-26T12:56:38.205Z,26.98
2024-03-26T12:59:07.037Z,27.41
2024-03-26T13:01:34.874Z,27.13
2024-03-26T13:04:03.880Z,26.52
2024-03-26T13:06:31.921Z,26.93
2024-03-26T13:09:00.495Z,26.91
2024-03-26T13:11:29.620Z,27.26
2024-03-26T13:13:58.076Z,27.31
2024-03-26T13:16:25.189Z,27.19
2024-03-26T13:18:54.261Z,27.63
2024-03-26T13:21:22.632Z,27.82
2024-03-26T13:23:51.367Z,28.13
2024-03-26T13:26:19.570Z,27.48
2024-03-26T13:28:47.155Z,27.91
2024-03-26T13:31:15.890Z,28.46
2024-03-26T13:33:43.374Z,28.36
2024-03-26T13:36:11.307Z,28.23
2024-03-26T13:38:42.362Z,28.27
2024-03-26T13:41:10.859Z,28.45
2024-03-26T13:43:38.262Z,28.22
2024-03-26T13:46:07.575Z,28.46
2024-03-26T13:48:37.277Z,28.86
2024-03-26T13:51:05.069Z,29.03
2024-03-26T13:53:33.750Z,28.89
2024-03-26T13:56:03.198Z,28.95
2024-03-26T13:58:31.779Z,29.10
2024-03-26T14:01:00.267Z,29.11
2024-03-26T14:03:28.774Z,28.93
2024-03-26T14:05:58.844Z,28.95
2024-03-26T14:08:26.629Z,29.41
2024-03-26T14:10:54.293Z,30.18
2024-03-26T14:13:21.941Z,30.69
2024-03-26T14:15:51.447Z,30.13
2024-03-26T14:18:18.821Z,30.88
2024-03-26T14:20:46.130Z,30.47
2024-03-26T14:23:13.650Z,29.92
2024-03-26T14:25:42.324Z,29.36
2024-03-26T14:28:09.811Z,29.16
2024-03-26T14:30:44.259Z,29.04
2024-03-26T14:33:11.596Z,28.92
2024-03-26T14:35:38.732Z,28.93
2024-03-26T14:38:07.838Z,28.91
2024-03-26T14:40:36.304Z,28.46
2024-03-26T14:43:03.796Z,28.30
2024-03-26T14:45:31.452Z,27.61
2024-03-26T14:48:01.171Z,27.99
2024-03-26T14:50:29.550Z,28.28
2024-03-26T14:52:58.978Z,27.90
2024-03-26T14:55:28.755Z,27.49
2024-03-26T14:57:57.048Z,27.16
2024-03-26T15:00:24.823Z,26.79
2024-03-26T15:02:52.013Z,26.19
2024-03-26T15:05:23.014Z,26.36
2024-03-26T15:07:52.625Z,26.80
2024-03-26T15:10:19.882Z,26.42
2024-03-26T15:12:48.811Z,25.96
2024-03-26T15:15:16.459Z,26.43
2024-03-26T15:17:43.628Z,26.09
2024-03-26T15:20:14.041Z,25.80
2024-03-26T15:22:44.482Z,25.24
2024-03-26T15:25:13.503Z,24.84
2024-03-26T15:28:04.462Z,24.22
2024-03-26T15:30:51.487Z,24.21
2024-03-26T15:33:20.044Z,24.61
2024-03-26T15:35:47.489Z,25.20
2024-03-26T15:38:16.592Z,25.80
2024-03-26T15:40:45.596Z,25.80
2024-03-26T15:43:12.881Z,26.19
2024-03-26T15:45:45.223Z,26.49
2024-03-26T15:48:13.872Z,27.20
2024-03-26T15:50:43.325Z,28.00
2024-03-26T15:53:12.023Z,28.20
2024-03-26T15:55:39.706Z,28.94
2024-03-26T15:58:07.868Z,29.23
2024-03-26T16:00:36.448Z,30.54
2024-03-26T16:03:04.133Z,31.57
2024-03-26T16:05:32.554Z,32.15
2024-03-26T16:08:00.425Z,33.47
2024-03-26T16:10:44.691Z,33.05
2024-03-26T16:13:17.398Z,33.09
2024-03-26T16:15:45.999Z,34.26
2024-03-26T16:18:14.760Z,34.54
2024-03-26T16:20:43.437Z,35.20
2024-03-26T16:23:12.728Z,36.26
2024-03-26T16:25:42.591Z,36.92
2024-03-26T16:28:10.987Z,36.88
2024-03-26T16:30:39.535Z,37.43
2024-03-26T16:33:09.339Z,37.73
2024-03-26T16:35:37.455Z,37.96
2024-03-26T16:38:06.474Z,38.71
2024-03-26T16:40:36.254Z,39.18
2024-03-26T16:43:06.814Z,39.56
2024-03-26T16:45:34.711Z,39.90
2024-03-26T16:48:02.805Z,40.58
2024-03-26T16:50:30.707Z,40.93
2024-03-26T16:53:00.600Z,40.84
2024-03-26T16:55:29.292Z,41.56
2024-03-26T16:57:57.653Z,41.79
2024-03-26T17:00:25.124Z,43.28
2024-03-26T17:02:53.375Z,43.19
2024-03-26T17:05:22.559Z,43.14
2024-03-26T17:07:50.978Z,44.36
2024-03-26T17:10:18.534Z,44.52
2024-03-26T17:12:46.518Z,44.69
2024-03-26T17:15:15.274Z,44.05
2024-03-26T17:17:43.242Z,43.03
2024-03-26T17:20:11.938Z,42.61
2024-03-26T17:22:40.769Z,41.78
2024-03-26T17:25:13.621Z,41.13
2024-03-26T17:27:43.401Z,41.10
2024-03-26T17:30:12.038Z,41.04
2024-03-26T17:32:41.218Z,41.20
2024-03-26T17:35:10.125Z,40.61
2024-03-26T17:37:39.226Z,40.55
2024-03-26T17:40:08.494Z,40.37
2024-03-26T17:42:37.226Z,39.96
2024-03-26T17:45:05.432Z,39.81
2024-03-26T17:47:33.579Z,39.79
2024-03-26T17:50:02.003Z,40.06
2024-03-26T17:52:31.461Z,39.84
2024-03-26T17:55:00.841Z,40.72
2024-03-26T17:57:30.824Z,40.34
2024-03-26T17:59:58.948Z,40.25
2024-03-26T18:02:27.182Z,40.62
2024-03-26T18:04:55.821Z,40.51
2024-03-26T18:07:25.752Z,40.44
2024-03-26T18:09:53.757Z,40.74
2024-03-26T18:12:24.023Z,40.75
2024-03-26T18:14:56.425Z,40.77
2024-03-26T18:17:25.752Z,41.22
2024-03-26T18:19:55.773Z,40.95
2024-03-26T18:22:23.717Z,40.37
2024-03-26T18:24:54.974Z,40.87
2024-03-26T18:27:25.242Z,40.62
2024-03-26T18:29:55.421Z,40.82
2024-03-26T18:32:25.058Z,40.73
2024-03-26T18:34:57.386Z,40.49
2024-03-26T18:37:25.315Z,41.36
2024-03-26T18:39:53.879Z,41.38
2024-03-26T18:42:22.238Z,41.33
2024-03-26T18:44:50.322Z,41.51
2024-03-26T18:47:19.197Z,41.80
2024-03-26T18:49:51.429Z,41.45
2024-03-26T18:52:19.987Z,41.48
2024-03-26T18:54:50.822Z,41.48
2024-03-26T18:57:19.947Z,42.13
2024-03-26T18:59:48.195Z,41.55
2024-03-26T19:02:16.280Z,42.03
2024-03-26T19:04:47.534Z,42.67
2024-03-26T19:07:16.182Z,44.24
2024-03-26T19:09:46.139Z,43.61
2024-03-26T19:12:15.475Z,44.22
2024-03-26T19:14:43.765Z,44.23
2024-03-26T19:17:13.556Z,44.29
2024-03-26T19:19:42.085Z,43.84
2024-03-26T19:22:09.743Z,44.38
2024-03-26T19:24:38.251Z,43.87
2024-03-26T19:27:07.168Z,43.90
2024-03-26T19:29:36.522Z,44.07
2024-03-26T19:32:06.613Z,44.61
2024-03-26T19:34:35.295Z,45.14
2024-03-26T19:37:07.258Z,44.83
2024-03-26T19:39:40.286Z,45.10
2024-03-26T19:42:09.045Z,45.12
2024-03-26T19:44:36.826Z,45.58
2024-03-26T19:47:04.471Z,46.44
2024-03-26T19:49:32.001Z,46.88
2024-03-26T19:52:02.853Z,47.87
2024-03-26T19:54:31.631Z,46.58
2024-03-26T19:56:59.513Z,46.43
2024-03-26T19:59:28.266Z,47.11
2024-03-26T20:01:56.690Z,47.13
2024-03-26T20:04:27.107Z,47.93
2024-03-26T20:06:56.988Z,48.23
2024-03-26T20:09:24.996Z,47.27
2024-03-26T20:11:53.982Z,47.34
2024-03-26T20:14:23.566Z,47.85
2024-03-26T20:16:52.868Z,49.26
2024-03-26T20:19:20.280Z,49.32
2024-03-26T20:21:48.617Z,50.10
2024-03-26T20:24:16.894Z,50.44
2024-03-26T20:26:45.843Z,51.14
2024-03-26T20:29:14.637Z,51.23
2024-03-26T20:31:45.045Z,51.01
2024-03-26T20:34:13.200Z,50.48
2024-03-26T20:36:42.118Z,50.81
2024-03-26T20:39:10.271Z,49.97
2024-03-26T20:41:38.275Z,50.65
2024-03-26T20:44:06.267Z,50.22
2024-03-26T20:46:34.151Z,50.10
2024-03-26T20:49:02.724Z,49.99
2024-03-26T20:51:33.443Z,49.23
2024-03-26T20:54:01.006Z,50.31
2024-03-26T20:56:28.592Z,50.74
2024-03-26T20:58:56.548Z,49.99
2024-03-26T21:01:25.001Z,49.79
2024-03-26T21:03:53.819Z,50.05
2024-03-26T21:06:22.538Z,50.29
2024-03-26T21:08:51.583Z,50.51
2024-03-26T21:11:21.744Z,50.39
2024-03-26T21:13:51.651Z,50.22
2024-03-26T21:16:19.808Z,49.60
2024-03-26T21:18:49.008Z,50.32
2024-03-26T21:21:20.365Z,51.26
2024-03-26T21:23:51.167Z,52.15
2024-03-26T21:26:19.644Z,51.84
2024-03-26T21:28:50.222Z,51.09
2024-03-26T21:31:19.217Z,50.42
2024-03-26T21:33:50.561Z,50.37
2024-03-26T21:36:18.897Z,49.10
2024-03-26T21:38:46.921Z,47.96
2024-03-26T21:41:16.034Z,48.38
2024-03-26T21:43:43.544Z,48.20
2024-03-26T21:46:12.244Z,48.04
2024-03-26T21:48:41.808Z,47.60
2024-03-26T21:51:10.349Z,46.79
2024-03-26T21:53:40.776Z,46.31
2024-03-26T21:56:11.149Z,46.23
2024-03-26T21:58:40.598Z,46.25
2024-03-26T22:01:10.892Z,45.59
2024-03-26T22:03:40.779Z,43.30
2024-03-26T22:06:13.523Z,44.20
2024-03-26T22:08:42.398Z,46.85
2024-03-26T22:11:15.003Z,48.31
2024-03-26T22:13:43.033Z,48.87
2024-03-26T22:16:12.096Z,50.03
2024-03-26T22:18:40.050Z,50.13
2024-03-26T22:21:11.245Z,50.50
2024-03-26T22:23:39.248Z,49.92
2024-03-26T22:26:09.166Z,49.79
2024-03-26T22:28:36.889Z,50.49
2024-03-26T22:31:06.435Z,50.23
2024-03-26T22:33:37.262Z,50.80
2024-03-26T22:36:09.506Z,50.11
2024-03-26T22:38:37.670Z,49.75
2024-03-26T22:41:06.105Z,49.60
2024-03-26T22:43:38.155Z,49.81
2024-03-26T22:46:07.989Z,49.88
2024-03-26T22:48:39.879Z,50.33
2024-03-26T22:51:09.767Z,50.63
2024-03-26T22:53:38.064Z,51.34
2024-03-26T22:56:07.188Z,50.72
2024-03-26T22:58:35.692Z,50.31
2024-03-26T23:01:03.109Z,50.51
2024-03-26T23:03:32.503Z,52.26
2024-03-26T23:06:04.890Z,52.02
2024-03-26T23:08:34.794Z,53.39
2024-03-26T23:11:04.109Z,53.15
2024-03-26T23:13:32.649Z,52.63
2024-03-26T23:16:02.765Z,52.29
2024-03-26T23:18:32.063Z,51.97
2024-03-26T23:21:01.217Z,51.91
2024-03-26T23:23:29.174Z,52.04
2024-03-26T23:25:59.216Z,51.25
2024-03-26T23:28:27.263Z,51.46
2024-03-26T23:30:57.670Z,51.25
2024-03-26T23:33:26.070Z,50.82
2024-03-26T23:35:54.735Z,49.67
2024-03-26T23:38:23.494Z,51.07
2024-03-26T23:40:52.082Z,50.82
2024-03-26T23:43:21.904Z,51.25
2024-03-26T23:45:50.338Z,51.65
2024-03-26T23:48:18.305Z,52.44
2024-03-26T23:50:47.971Z,51.76
2024-03-26T23:53:17.684Z,51.77
2024-03-26T23:55:45.065Z,51.86
2024-03-26T23:58:13.038Z,52.23
